Terminal Aerodrome Forecast
Issued by NWS

Home | Current Version | Previous Version | Text Only | Print | Product List | Glossary On
Versions: 1 2 3 4 5 6 7 8 9 10 11 12 13 14 15 16 17 18 19 20 21 22 23 24 25 26 27 28 29 30 31 32 33 34
285
FTUS44 KLIX 300540
TAFHDC
TAF
KHDC 300540Z 3006/0106 14008KT P6SM BKN015 BKN025
     FM300800 15009KT P6SM OVC010
     FM301600 15014G24KT P6SM OVC035
     FM301900 16014G21KT P6SM VCTS BKN025CB
     FM302200 17012KT P6SM SHRA OVC035
     FM010000 15010KT P6SM OVC025=

USA.gov is the U.S. government's official web portal to all federal, state and local government web resources and services.